sensor_id;sensor_type;location;lat;lon;timestamp;pressure;altitude;pressure_sealevel;temperature;humidity
21236;BME280;10775;42.678;26.324;2023-05-19T00:01:26;98350.75;;;16.69;79.89
21236;BME280;10775;42.678;26.324;2023-05-19T00:03:54;98350.88;;;17.02;77.63
21236;BME280;10775;42.678;26.324;2023-05-19T00:06:26;98351.03;;;16.45;80.60
21236;BME280;10775;42.678;26.324;2023-05-19T00:09:11;98341.25;;;16.30;82.36
21236;BME280;10775;42.678;26.324;2023-05-19T00:11:38;98324.47;;;17.02;78.07
21236;BME280;10775;42.678;26.324;2023-05-19T00:14:05;98348.38;;;17.16;77.13
21236;BME280;10775;42.678;26.324;2023-05-19T00:16:34;98324.38;;;16.69;79.46
21236;BME280;10775;42.678;26.324;2023-05-19T00:19:01;98309.56;;;16.49;80.98
21236;BME280;10775;42.678;26.324;2023-05-19T00:21:28;98321.97;;;16.64;80.33
21236;BME280;10775;42.678;26.324;2023-05-19T00:23:54;98326.53;;;16.43;81.81
21236;BME280;10775;42.678;26.324;2023-05-19T00:26:19;98337.44;;;16.36;82.42
21236;BME280;10775;42.678;26.324;2023-05-19T00:28:49;98345.94;;;16.42;81.98
21236;BME280;10775;42.678;26.324;2023-05-19T00:31:14;98353.56;;;16.66;80.21
21236;BME280;10775;42.678;26.324;2023-05-19T00:33:40;98340.69;;;16.77;79.12
21236;BME280;10775;42.678;26.324;2023-05-19T00:36:06;98380.00;;;16.83;79.15
21236;BME280;10775;42.678;26.324;2023-05-19T00:38:33;98380.38;;;16.39;81.40
21236;BME280;10775;42.678;26.324;2023-05-19T00:41:00;98402.56;;;15.97;85.14
21236;BME280;10775;42.678;26.324;2023-05-19T00:43:26;98413.97;;;16.17;84.07
21236;BME280;10775;42.678;26.324;2023-05-19T00:45:51;98415.94;;;15.74;87.68
21236;BME280;10775;42.678;26.324;2023-05-19T00:48:17;98422.09;;;16.31;83.45
21236;BME280;10775;42.678;26.324;2023-05-19T00:50:43;98404.38;;;16.16;83.35
21236;BME280;10775;42.678;26.324;2023-05-19T00:53:09;98415.38;;;16.43;81.90
21236;BME280;10775;42.678;26.324;2023-05-19T00:55:36;98414.94;;;16.52;82.72
21236;BME280;10775;42.678;26.324;2023-05-19T00:58:05;98422.31;;;16.07;85.49
21236;BME280;10775;42.678;26.324;2023-05-19T01:00:31;98427.38;;;15.93;86.42
21236;BME280;10775;42.678;26.324;2023-05-19T01:02:56;98422.00;;;16.33;82.49
21236;BME280;10775;42.678;26.324;2023-05-19T01:05:22;98431.56;;;16.54;81.09
21236;BME280;10775;42.678;26.324;2023-05-19T01:07:47;98420.31;;;16.32;83.34
21236;BME280;10775;42.678;26.324;2023-05-19T01:10:18;98432.00;;;16.45;83.04
21236;BME280;10775;42.678;26.324;2023-05-19T01:12:44;98450.53;;;16.43;82.82
21236;BME280;10775;42.678;26.324;2023-05-19T01:15:10;98434.06;;;16.19;82.79
21236;BME280;10775;42.678;26.324;2023-05-19T01:17:53;98435.94;;;15.98;84.85
21236;BME280;10775;42.678;26.324;2023-05-19T01:20:34;98444.13;;;16.11;84.69
21236;BME280;10775;42.678;26.324;2023-05-19T01:31:14;98464.22;;;16.33;81.87
21236;BME280;10775;42.678;26.324;2023-05-19T01:33:44;98460.16;;;16.06;85.62
21236;BME280;10775;42.678;26.324;2023-05-19T01:36:11;98454.78;;;16.46;81.06
21236;BME280;10775;42.678;26.324;2023-05-19T01:38:38;98448.53;;;16.29;83.88
21236;BME280;10775;42.678;26.324;2023-05-19T01:41:05;98459.59;;;16.19;82.76
21236;BME280;10775;42.678;26.324;2023-05-19T01:43:32;98461.66;;;16.12;85.17
21236;BME280;10775;42.678;26.324;2023-05-19T01:45:57;98468.91;;;16.07;85.30
21236;BME280;10775;42.678;26.324;2023-05-19T01:48:25;98462.00;;;16.04;83.38
21236;BME280;10775;42.678;26.324;2023-05-19T01:50:51;98473.00;;;16.14;84.30
21236;BME280;10775;42.678;26.324;2023-05-19T01:53:16;98469.78;;;16.26;83.35
21236;BME280;10775;42.678;26.324;2023-05-19T01:55:48;98461.59;;;16.33;81.68
21236;BME280;10775;42.678;26.324;2023-05-19T01:58:26;98466.94;;;16.31;81.31
21236;BME280;10775;42.678;26.324;2023-05-19T02:01:00;98461.34;;;17.11;76.65
21236;BME280;10775;42.678;26.324;2023-05-19T02:12:18;98469.06;;;16.42;80.34
21236;BME280;10775;42.678;26.324;2023-05-19T02:14:40;98471.78;;;16.59;78.81
21236;BME280;10775;42.678;26.324;2023-05-19T02:17:13;98469.72;;;16.47;80.56
21236;BME280;10775;42.678;26.324;2023-05-19T02:19:42;98478.13;;;16.36;80.16
21236;BME280;10775;42.678;26.324;2023-05-19T02:22:07;98480.09;;;16.12;81.89
21236;BME280;10775;42.678;26.324;2023-05-19T02:24:33;98471.78;;;16.21;82.38
21236;BME280;10775;42.678;26.324;2023-05-19T02:26:58;98469.78;;;16.26;81.28
21236;BME280;10775;42.678;26.324;2023-05-19T02:29:24;98471.97;;;16.36;81.32
21236;BME280;10775;42.678;26.324;2023-05-19T02:31:49;98470.56;;;16.09;83.44
21236;BME280;10775;42.678;26.324;2023-05-19T02:34:15;98468.94;;;15.66;85.19
21236;BME280;10775;42.678;26.324;2023-05-19T02:36:41;98463.81;;;15.63;85.03
21236;BME280;10775;42.678;26.324;2023-05-19T02:39:14;98470.56;;;15.70;85.04
21236;BME280;10775;42.678;26.324;2023-05-19T02:41:40;98462.88;;;15.64;85.34
21236;BME280;10775;42.678;26.324;2023-05-19T02:44:05;98490.06;;;15.23;88.94
21236;BME280;10775;42.678;26.324;2023-05-19T02:46:32;98496.03;;;15.49;86.24
21236;BME280;10775;42.678;26.324;2023-05-19T02:48:57;98487.06;;;15.94;83.90
21236;BME280;10775;42.678;26.324;2023-05-19T02:51:22;98505.56;;;15.52;85.66
21236;BME280;10775;42.678;26.324;2023-05-19T02:53:48;98501.69;;;16.01;82.55
21236;BME280;10775;42.678;26.324;2023-05-19T02:56:14;98516.63;;;16.21;81.77
21236;BME280;10775;42.678;26.324;2023-05-19T02:58:39;98511.84;;;16.29;80.76
21236;BME280;10775;42.678;26.324;2023-05-19T03:01:07;98520.47;;;16.14;82.08
21236;BME280;10775;42.678;26.324;2023-05-19T03:03:33;98511.06;;;16.65;78.82
21236;BME280;10775;42.678;26.324;2023-05-19T03:05:58;98508.91;;;16.73;77.80
21236;BME280;10775;42.678;26.324;2023-05-19T03:08:24;98498.88;;;16.44;79.06
21236;BME280;10775;42.678;26.324;2023-05-19T03:10:49;98514.69;;;16.25;80.15
21236;BME280;10775;42.678;26.324;2023-05-19T03:13:15;98533.38;;;16.00;81.89
21236;BME280;10775;42.678;26.324;2023-05-19T03:15:41;98522.16;;;16.15;80.99
21236;BME280;10775;42.678;26.324;2023-05-19T03:18:07;98536.44;;;16.30;81.06
21236;BME280;10775;42.678;26.324;2023-05-19T03:20:32;98529.50;;;16.08;81.67
21236;BME280;10775;42.678;26.324;2023-05-19T03:22:58;98535.28;;;16.17;80.90
21236;BME280;10775;42.678;26.324;2023-05-19T03:25:24;98537.16;;;15.74;83.59
21236;BME280;10775;42.678;26.324;2023-05-19T03:27:50;98540.78;;;15.71;84.14
21236;BME280;10775;42.678;26.324;2023-05-19T03:30:15;98533.44;;;15.37;85.33
21236;BME280;10775;42.678;26.324;2023-05-19T03:32:41;98536.06;;;15.37;86.04
21236;BME280;10775;42.678;26.324;2023-05-19T03:35:07;98541.97;;;15.84;83.24
21236;BME280;10775;42.678;26.324;2023-05-19T03:37:32;98532.22;;;15.86;83.39
21236;BME280;10775;42.678;26.324;2023-05-19T03:39:58;98535.44;;;16.14;81.58
21236;BME280;10775;42.678;26.324;2023-05-19T03:42:24;98543.09;;;15.79;83.08
21236;BME280;10775;42.678;26.324;2023-05-19T03:44:49;98535.03;;;15.61;84.97
21236;BME280;10775;42.678;26.324;2023-05-19T03:47:15;98541.34;;;16.19;81.53
21236;BME280;10775;42.678;26.324;2023-05-19T03:49:40;98535.28;;;16.17;81.87
21236;BME280;10775;42.678;26.324;2023-05-19T03:52:06;98544.34;;;15.91;83.20
21236;BME280;10775;42.678;26.324;2023-05-19T03:54:31;98534.03;;;15.64;84.95
21236;BME280;10775;42.678;26.324;2023-05-19T03:56:57;98545.13;;;16.13;82.47
21236;BME280;10775;42.678;26.324;2023-05-19T03:59:22;98541.72;;;16.30;80.81
21236;BME280;10775;42.678;26.324;2023-05-19T04:01:48;98549.34;;;15.97;82.26
21236;BME280;10775;42.678;26.324;2023-05-19T04:04:15;98556.78;;;15.87;83.59
21236;BME280;10775;42.678;26.324;2023-05-19T04:06:41;98553.34;;;16.26;80.72
21236;BME280;10775;42.678;26.324;2023-05-19T04:09:13;98541.72;;;16.30;80.94
21236;BME280;10775;42.678;26.324;2023-05-19T04:11:40;98550.59;;;15.68;84.97
21236;BME280;10775;42.678;26.324;2023-05-19T04:14:06;98544.22;;;15.94;83.22
21236;BME280;10775;42.678;26.324;2023-05-19T04:16:32;98546.34;;;15.85;83.22
21236;BME280;10775;42.678;26.324;2023-05-19T04:18:57;98546.66;;;15.78;84.37
21236;BME280;10775;42.678;26.324;2023-05-19T04:21:23;98534.19;;;16.41;79.91
21236;BME280;10775;42.678;26.324;2023-05-19T04:23:48;98536.41;;;16.69;77.83
21236;BME280;10775;42.678;26.324;2023-05-19T04:26:14;98535.88;;;16.23;80.86
21236;BME280;10775;42.678;26.324;2023-05-19T04:28:40;98533.94;;;15.88;81.95
21236;BME280;10775;42.678;26.324;2023-05-19T04:31:11;98535.88;;;16.61;78.75
21236;BME280;10775;42.678;26.324;2023-05-19T04:33:38;98539.28;;;16.25;80.32
21236;BME280;10775;42.678;26.324;2023-05-19T04:36:05;98539.13;;;16.09;81.30
21236;BME280;10775;42.678;26.324;2023-05-19T04:38:36;98546.13;;;15.70;83.26
21236;BME280;10775;42.678;26.324;2023-05-19T04:41:07;98539.91;;;16.12;81.32
21236;BME280;10775;42.678;26.324;2023-05-19T04:43:35;98551.56;;;16.45;79.21
21236;BME280;10775;42.678;26.324;2023-05-19T04:46:02;98542.00;;;16.43;80.21
21236;BME280;10775;42.678;26.324;2023-05-19T04:48:30;98550.94;;;16.59;78.22
21236;BME280;10775;42.678;26.324;2023-05-19T04:50:57;98554.66;;;16.36;80.20
21236;BME280;10775;42.678;26.324;2023-05-19T04:53:28;98550.16;;;16.57;79.86
21236;BME280;10775;42.678;26.324;2023-05-19T04:55:54;98546.72;;;16.74;78.19
21236;BME280;10775;42.678;26.324;2023-05-19T04:58:21;98557.88;;;16.62;78.15
21236;BME280;10775;42.678;26.324;2023-05-19T05:00:50;98552.28;;;16.87;76.85
21236;BME280;10775;42.678;26.324;2023-05-19T05:03:15;98548.78;;;16.29;80.62
21236;BME280;10775;42.678;26.324;2023-05-19T05:05:41;98555.22;;;16.62;79.11
21236;BME280;10775;42.678;26.324;2023-05-19T05:08:09;98549.44;;;16.91;76.40
21236;BME280;10775;42.678;26.324;2023-05-19T05:10:34;98545.25;;;16.87;77.76
21236;BME280;10775;42.678;26.324;2023-05-19T05:13:00;98560.25;;;16.66;79.46
21236;BME280;10775;42.678;26.324;2023-05-19T05:15:26;98550.31;;;17.46;73.70
21236;BME280;10775;42.678;26.324;2023-05-19T05:17:53;98563.69;;;17.06;75.54
21236;BME280;10775;42.678;26.324;2023-05-19T05:20:19;98554.50;;;16.77;77.12
21236;BME280;10775;42.678;26.324;2023-05-19T05:22:44;98563.75;;;16.87;76.60
21236;BME280;10775;42.678;26.324;2023-05-19T05:25:11;98573.09;;;17.31;74.80
21236;BME280;10775;42.678;26.324;2023-05-19T05:27:36;98563.38;;;17.31;74.14
21236;BME280;10775;42.678;26.324;2023-05-19T05:30:02;98567.66;;;17.34;74.26
21236;BME280;10775;42.678;26.324;2023-05-19T05:32:28;98582.16;;;17.25;75.04
21236;BME280;10775;42.678;26.324;2023-05-19T05:34:54;98574.84;;;17.30;73.84
21236;BME280;10775;42.678;26.324;2023-05-19T05:37:19;98576.63;;;17.49;74.42
21236;BME280;10775;42.678;26.324;2023-05-19T05:39:44;98576.75;;;17.46;75.08
21236;BME280;10775;42.678;26.324;2023-05-19T05:42:10;98575.50;;;17.53;74.93
21236;BME280;10775;42.678;26.324;2023-05-19T05:44:36;98584.22;;;18.07;73.64
21236;BME280;10775;42.678;26.324;2023-05-19T05:47:02;98581.13;;;17.64;74.20
21236;BME280;10775;42.678;26.324;2023-05-19T05:49:28;98592.78;;;17.60;75.79
21236;BME280;10775;42.678;26.324;2023-05-19T05:51:54;98587.03;;;17.52;76.16
21236;BME280;10775;42.678;26.324;2023-05-19T05:54:21;98600.47;;;18.17;73.95
21236;BME280;10775;42.678;26.324;2023-05-19T05:56:47;98607.72;;;18.31;72.67
21236;BME280;10775;42.678;26.324;2023-05-19T05:59:13;98600.69;;;18.30;72.67
21236;BME280;10775;42.678;26.324;2023-05-19T06:01:39;98624.75;;;18.58;71.27
21236;BME280;10775;42.678;26.324;2023-05-19T06:04:06;98611.34;;;17.95;70.09
21236;BME280;10775;42.678;26.324;2023-05-19T06:06:32;98619.56;;;18.06;73.46
21236;BME280;10775;42.678;26.324;2023-05-19T06:08:57;98618.50;;;18.43;71.37
21236;BME280;10775;42.678;26.324;2023-05-19T06:11:23;98629.50;;;18.36;70.97
21236;BME280;10775;42.678;26.324;2023-05-19T06:13:49;98631.28;;;18.68;70.97
21236;BME280;10775;42.678;26.324;2023-05-19T06:16:14;98635.81;;;18.16;70.43
21236;BME280;10775;42.678;26.324;2023-05-19T06:18:40;98637.38;;;18.53;72.17
21236;BME280;10775;42.678;26.324;2023-05-19T06:21:05;98637.41;;;18.86;69.33
21236;BME280;10775;42.678;26.324;2023-05-19T06:23:31;98659.38;;;18.71;69.09
21236;BME280;10775;42.678;26.324;2023-05-19T06:25:56;98639.63;;;19.42;69.09
21236;BME280;10775;42.678;26.324;2023-05-19T06:28:23;98653.31;;;19.82;66.55
21236;BME280;10775;42.678;26.324;2023-05-19T06:30:49;98649.88;;;19.64;69.09
21236;BME280;10775;42.678;26.324;2023-05-19T06:33:14;98651.84;;;21.22;62.73
21236;BME280;10775;42.678;26.324;2023-05-19T06:35:40;98646.78;;;20.32;62.20
21236;BME280;10775;42.678;26.324;2023-05-19T06:38:05;98653.06;;;20.31;63.66
21236;BME280;10775;42.678;26.324;2023-05-19T06:40:30;98660.06;;;20.76;62.12
21236;BME280;10775;42.678;26.324;2023-05-19T06:42:56;98653.53;;;21.65;61.35
21236;BME280;10775;42.678;26.324;2023-05-19T06:45:22;98655.75;;;22.64;57.58
21236;BME280;10775;42.678;26.324;2023-05-19T06:47:48;98657.97;;;22.70;57.22
21236;BME280;10775;42.678;26.324;2023-05-19T06:50:13;98659.44;;;21.83;58.46
21236;BME280;10775;42.678;26.324;2023-05-19T06:52:39;98661.44;;;22.06;59.09
21236;BME280;10775;42.678;26.324;2023-05-19T06:55:05;98648.53;;;21.60;60.28
21236;BME280;10775;42.678;26.324;2023-05-19T06:57:31;98653.19;;;21.84;56.33
21236;BME280;10775;42.678;26.324;2023-05-19T06:59:56;98657.81;;;22.60;56.00
21236;BME280;10775;42.678;26.324;2023-05-19T07:02:22;98653.09;;;21.98;58.20
21236;BME280;10775;42.678;26.324;2023-05-19T07:04:47;98649.38;;;22.53;57.02
21236;BME280;10775;42.678;26.324;2023-05-19T07:07:13;98661.72;;;21.62;57.39
21236;BME280;10775;42.678;26.324;2023-05-19T07:09:38;98653.59;;;22.94;57.17
21236;BME280;10775;42.678;26.324;2023-05-19T07:12:04;98665.13;;;22.82;56.40
21236;BME280;10775;42.678;26.324;2023-05-19T07:14:30;98662.63;;;23.91;53.13
21236;BME280;10775;42.678;26.324;2023-05-19T07:16:57;98643.59;;;22.85;56.24
21236;BME280;10775;42.678;26.324;2023-05-19T07:19:22;98658.97;;;22.43;53.53
21236;BME280;10775;42.678;26.324;2023-05-19T07:21:48;98658.50;;;23.00;53.09
21236;BME280;10775;42.678;26.324;2023-05-19T07:24:13;98648.88;;;24.78;51.01
21236;BME280;10775;42.678;26.324;2023-05-19T07:26:39;98659.56;;;24.31;51.19
21236;BME280;10775;42.678;26.324;2023-05-19T07:29:05;98651.47;;;24.44;50.50
21236;BME280;10775;42.678;26.324;2023-05-19T07:31:31;98650.72;;;24.30;51.83
21236;BME280;10775;42.678;26.324;2023-05-19T07:33:57;98662.28;;;23.96;53.05
21236;BME280;10775;42.678;26.324;2023-05-19T07:36:22;98664.06;;;22.46;55.60
21236;BME280;10775;42.678;26.324;2023-05-19T07:38:48;98673.03;;;23.09;53.70
21236;BME280;10775;42.678;26.324;2023-05-19T07:41:13;98663.50;;;23.55;52.21
21236;BME280;10775;42.678;26.324;2023-05-19T07:43:39;98665.94;;;23.21;52.36
21236;BME280;10775;42.678;26.324;2023-05-19T07:46:05;98666.84;;;22.57;54.87
21236;BME280;10775;42.678;26.324;2023-05-19T07:48:30;98681.53;;;21.98;52.99
21236;BME280;10775;42.678;26.324;2023-05-19T07:50:56;98675.78;;;22.44;53.58
21236;BME280;10775;42.678;26.324;2023-05-19T07:53:22;98666.13;;;23.31;53.30
21236;BME280;10775;42.678;26.324;2023-05-19T07:55:47;98669.59;;;23.07;50.93
21236;BME280;10775;42.678;26.324;2023-05-19T07:58:13;98673.88;;;22.84;51.71
21236;BME280;10775;42.678;26.324;2023-05-19T08:00:40;98669.22;;;23.37;50.38
21236;BME280;10775;42.678;26.324;2023-05-19T08:03:07;98688.25;;;22.94;50.30
21236;BME280;10775;42.678;26.324;2023-05-19T08:05:34;98684.53;;;23.10;50.83
21236;BME280;10775;42.678;26.324;2023-05-19T08:08:00;98691.47;;;22.99;51.84
21236;BME280;10775;42.678;26.324;2023-05-19T08:10:26;98692.44;;;22.73;53.94
21236;BME280;10775;42.678;26.324;2023-05-19T08:12:52;98687.72;;;22.76;51.34
21236;BME280;10775;42.678;26.324;2023-05-19T08:15:17;98693.91;;;22.51;52.66
21236;BME280;10775;42.678;26.324;2023-05-19T08:17:43;98692.44;;;22.73;54.71
21236;BME280;10775;42.678;26.324;2023-05-19T08:20:09;98687.81;;;22.62;52.79
21236;BME280;10775;42.678;26.324;2023-05-19T08:22:36;98703.84;;;21.26;54.88
21236;BME280;10775;42.678;26.324;2023-05-19T08:25:02;98698.44;;;21.14;55.84
21236;BME280;10775;42.678;26.324;2023-05-19T08:27:30;98695.09;;;21.80;54.61
21236;BME280;10775;42.678;26.324;2023-05-19T08:29:56;98698.75;;;21.65;55.54
21236;BME280;10775;42.678;26.324;2023-05-19T08:32:22;98699.56;;;21.53;58.31
21236;BME280;10775;42.678;26.324;2023-05-19T08:34:47;98700.91;;;22.27;54.96
21236;BME280;10775;42.678;26.324;2023-05-19T08:37:15;98697.22;;;22.15;53.05
21236;BME280;10775;42.678;26.324;2023-05-19T08:39:40;98699.13;;;22.40;53.03
21236;BME280;10775;42.678;26.324;2023-05-19T08:42:06;98692.59;;;21.64;53.07
21236;BME280;10775;42.678;26.324;2023-05-19T08:44:34;98702.78;;;21.58;54.80
21236;BME280;10775;42.678;26.324;2023-05-19T08:47:02;98706.16;;;21.74;54.84
21236;BME280;10775;42.678;26.324;2023-05-19T08:49:32;98695.41;;;21.76;53.10
21236;BME280;10775;42.678;26.324;2023-05-19T08:54:29;98684.34;;;21.82;53.94
21236;BME280;10775;42.678;26.324;2023-05-19T08:56:58;98690.22;;;21.60;56.74
21236;BME280;10775;42.678;26.324;2023-05-19T08:59:25;98696.16;;;21.51;55.73
21236;BME280;10775;42.678;26.324;2023-05-19T09:01:52;98699.56;;;22.07;55.55
21236;BME280;10775;42.678;26.324;2023-05-19T09:04:19;98701.91;;;22.11;55.13
21236;BME280;10775;42.678;26.324;2023-05-19T09:06:45;98688.06;;;22.06;54.70
21236;BME280;10775;42.678;26.324;2023-05-19T09:09:11;98690.31;;;22.65;54.14
21236;BME280;10775;42.678;26.324;2023-05-19T09:11:36;98692.63;;;22.70;53.06
21236;BME280;10775;42.678;26.324;2023-05-19T09:14:04;98690.47;;;22.49;54.27
21236;BME280;10775;42.678;26.324;2023-05-19T09:16:32;98693.91;;;22.64;55.09
21236;BME280;10775;42.678;26.324;2023-05-19T09:18:58;98686.22;;;22.85;53.02
21236;BME280;10775;42.678;26.324;2023-05-19T09:21:31;98691.47;;;22.74;52.67
21236;BME280;10775;42.678;26.324;2023-05-19T09:24:03;98703.03;;;22.22;56.43
21236;BME280;10775;42.678;26.324;2023-05-19T09:26:38;98694.34;;;22.45;53.62
21236;BME280;10775;42.678;26.324;2023-05-19T09:29:14;98693.38;;;22.85;52.39
21236;BME280;10775;42.678;26.324;2023-05-19T09:31:51;98709.69;;;23.06;54.46
21236;BME280;10775;42.678;26.324;2023-05-19T09:34:18;98698.69;;;22.72;53.31
21236;BME280;10775;42.678;26.324;2023-05-19T09:36:45;98706.38;;;22.76;53.63
21236;BME280;10775;42.678;26.324;2023-05-19T09:39:14;98708.19;;;22.76;54.36
21236;BME280;10775;42.678;26.324;2023-05-19T09:41:40;98696.16;;;23.09;53.04
21236;BME280;10775;42.678;26.324;2023-05-19T09:44:06;98701.66;;;23.31;53.01
21236;BME280;10775;42.678;26.324;2023-05-19T09:46:31;98702.22;;;22.98;54.50
21236;BME280;10775;42.678;26.324;2023-05-19T09:49:07;98701.50;;;22.18;53.96
21236;BME280;10775;42.678;26.324;2023-05-19T09:51:36;98694.09;;;22.35;55.54
21236;BME280;10775;42.678;26.324;2023-05-19T09:54:02;98704.69;;;22.88;54.52
21236;BME280;10775;42.678;26.324;2023-05-19T09:56:35;98722.97;;;22.54;54.00
21236;BME280;10775;42.678;26.324;2023-05-19T09:59:03;98708.22;;;23.02;52.51
21236;BME280;10775;42.678;26.324;2023-05-19T10:01:30;98699.88;;;22.93;53.15
21236;BME280;10775;42.678;26.324;2023-05-19T10:03:58;98711.41;;;22.94;53.45
21236;BME280;10775;42.678;26.324;2023-05-19T10:06:25;98714.81;;;22.70;52.95
21236;BME280;10775;42.678;26.324;2023-05-19T10:08:51;98702.22;;;22.60;53.79
21236;BME280;10775;42.678;26.324;2023-05-19T10:11:17;98705.41;;;22.77;53.75
21236;BME280;10775;42.678;26.324;2023-05-19T10:13:44;98698.81;;;22.83;54.83
21236;BME280;10775;42.678;26.324;2023-05-19T10:16:11;98695.09;;;22.86;52.99
21236;BME280;10775;42.678;26.324;2023-05-19T10:18:38;98683.25;;;22.77;52.48
21236;BME280;10775;42.678;26.324;2023-05-19T10:21:04;98672.47;;;22.91;51.58
21236;BME280;10775;42.678;26.324;2023-05-19T10:23:31;98681.78;;;23.11;50.99
21236;BME280;10775;42.678;26.324;2023-05-19T10:25:58;98688.47;;;22.78;55.12
21236;BME280;10775;42.678;26.324;2023-05-19T10:28:33;98673.34;;;23.05;52.38
21236;BME280;10775;42.678;26.324;2023-05-19T10:31:01;98672.59;;;22.77;53.31
21236;BME280;10775;42.678;26.324;2023-05-19T10:38:47;98654.44;;;22.95;52.89
21236;BME280;10775;42.678;26.324;2023-05-19T10:46:45;98633.91;;;22.84;54.44
21236;BME280;10775;42.678;26.324;2023-05-19T10:49:19;98626.53;;;23.37;53.42
21236;BME280;10775;42.678;26.324;2023-05-19T10:51:45;98637.16;;;23.13;53.92
21236;BME280;10775;42.678;26.324;2023-05-19T10:54:11;98619.84;;;23.32;52.93
21236;BME280;10775;42.678;26.324;2023-05-19T10:56:42;98639.13;;;23.11;54.75
21236;BME280;10775;42.678;26.324;2023-05-19T10:59:29;98637.44;;;23.34;53.13
21236;BME280;10775;42.678;26.324;2023-05-19T11:01:56;98648.72;;;23.62;54.00
21236;BME280;10775;42.678;26.324;2023-05-19T11:04:38;98635.25;;;24.12;51.58
21236;BME280;10775;42.678;26.324;2023-05-19T11:07:04;98643.06;;;23.66;51.62
21236;BME280;10775;42.678;26.324;2023-05-19T11:09:29;98642.44;;;24.22;52.21
21236;BME280;10775;42.678;26.324;2023-05-19T11:12:01;98637.25;;;24.43;50.00
21236;BME280;10775;42.678;26.324;2023-05-19T11:14:27;98643.59;;;24.07;50.64
21236;BME280;10775;42.678;26.324;2023-05-19T11:16:57;98666.34;;;23.28;52.18
21236;BME280;10775;42.678;26.324;2023-05-19T11:20:11;98647.97;;;22.86;52.27
21236;BME280;10775;42.678;26.324;2023-05-19T11:22:15;98664.59;;;22.77;53.13
21236;BME280;10775;42.678;26.324;2023-05-19T11:24:47;98689.09;;;22.69;54.52
21236;BME280;10775;42.678;26.324;2023-05-19T11:27:31;98700.50;;;22.33;57.46
21236;BME280;10775;42.678;26.324;2023-05-19T11:32:31;98773.69;;;20.41;65.46
21236;BME280;10775;42.678;26.324;2023-05-19T11:35:00;98790.88;;;18.89;74.11
21236;BME280;10775;42.678;26.324;2023-05-19T11:37:27;98778.81;;;17.38;99.67
21236;BME280;10775;42.678;26.324;2023-05-19T11:39:56;98764.28;;;17.09;98.69
21236;BME280;10775;42.678;26.324;2023-05-19T11:42:22;98794.53;;;16.82;98.88
21236;BME280;10775;42.678;26.324;2023-05-19T11:44:48;98807.66;;;17.43;89.76
21236;BME280;10775;42.678;26.324;2023-05-19T11:47:14;98815.88;;;17.37;89.00
21236;BME280;10775;42.678;26.324;2023-05-19T11:49:47;98802.84;;;17.32;91.91
21236;BME280;10775;42.678;26.324;2023-05-19T11:52:13;98789.13;;;16.44;93.84
21236;BME280;10775;42.678;26.324;2023-05-19T11:54:39;98789.56;;;16.53;94.19
21236;BME280;10775;42.678;26.324;2023-05-19T11:57:07;98790.38;;;16.13;95.63
21236;BME280;10775;42.678;26.324;2023-05-19T11:59:35;98786.88;;;15.91;100.00
21236;BME280;10775;42.678;26.324;2023-05-19T12:02:22;98757.94;;;16.11;100.00
21236;BME280;10775;42.678;26.324;2023-05-19T12:04:52;98758.00;;;16.09;98.55
21236;BME280;10775;42.678;26.324;2023-05-19T12:07:19;98754.03;;;17.41;94.48
21236;BME280;10775;42.678;26.324;2023-05-19T12:09:47;98746.09;;;18.15;89.15
21236;BME280;10775;42.678;26.324;2023-05-19T12:12:14;98735.19;;;18.56;83.97
21236;BME280;10775;42.678;26.324;2023-05-19T12:14:41;98722.41;;;17.95;86.15
21236;BME280;10775;42.678;26.324;2023-05-19T12:17:14;98718.13;;;17.92;88.71
21236;BME280;10775;42.678;26.324;2023-05-19T12:19:45;98714.63;;;18.09;85.55
21236;BME280;10775;42.678;26.324;2023-05-19T12:22:11;98715.56;;;18.78;82.08
21236;BME280;10775;42.678;26.324;2023-05-19T12:24:37;98721.47;;;17.96;88.89
21236;BME280;10775;42.678;26.324;2023-05-19T12:29:55;98728.78;;;17.72;89.84
21236;BME280;10775;42.678;26.324;2023-05-19T12:32:27;98731.22;;;17.01;97.25
21236;BME280;10775;42.678;26.324;2023-05-19T12:34:55;98728.19;;;17.29;92.51
21236;BME280;10775;42.678;26.324;2023-05-19T12:37:21;98714.56;;;18.28;87.97
21236;BME280;10775;42.678;26.324;2023-05-19T12:39:49;98706.31;;;17.44;87.63
21236;BME280;10775;42.678;26.324;2023-05-19T12:42:15;98706.22;;;18.01;86.33
21236;BME280;10775;42.678;26.324;2023-05-19T12:44:45;98706.28;;;17.82;86.71
21236;BME280;10775;42.678;26.324;2023-05-19T12:47:11;98704.50;;;17.83;89.33
21236;BME280;10775;42.678;26.324;2023-05-19T12:49:55;98703.88;;;18.12;85.07
21236;BME280;10775;42.678;26.324;2023-05-19T12:52:22;98703.25;;;18.59;84.44
21236;BME280;10775;42.678;26.324;2023-05-19T12:54:48;98707.84;;;18.56;83.15
21236;BME280;10775;42.678;26.324;2023-05-19T12:57:18;98696.13;;;18.44;84.53
21236;BME280;10775;42.678;26.324;2023-05-19T12:59:46;98696.91;;;18.46;85.17
21236;BME280;10775;42.678;26.324;2023-05-19T13:02:12;98702.94;;;18.65;82.21
21236;BME280;10775;42.678;26.324;2023-05-19T13:04:38;98699.31;;;18.33;80.48
21236;BME280;10775;42.678;26.324;2023-05-19T13:07:03;98704.22;;;18.23;81.98
21236;BME280;10775;42.678;26.324;2023-05-19T13:09:29;98706.53;;;18.64;82.86
21236;BME280;10775;42.678;26.324;2023-05-19T13:11:59;98701.06;;;18.67;82.70
21236;BME280;10775;42.678;26.324;2023-05-19T13:14:24;98698.63;;;19.14;81.98
21236;BME280;10775;42.678;26.324;2023-05-19T13:16:50;98699.16;;;19.36;80.70
21236;BME280;10775;42.678;26.324;2023-05-19T13:19:17;98692.22;;;19.65;78.88
21236;BME280;10775;42.678;26.324;2023-05-19T13:21:44;98700.84;;;19.21;78.27
21236;BME280;10775;42.678;26.324;2023-05-19T13:24:12;98696.59;;;19.19;79.10
21236;BME280;10775;42.678;26.324;2023-05-19T13:26:37;98702.00;;;19.33;76.49